Time;durP1;ratioP1;P1;durP2;ratioP2;P2;SDS_P1;SDS_P2;PMS_P1;PMS_P2;Temp;Humidity;BMP_temperature;BMP_pressure;BME280_temperature;BME280_humidity;BME280_pressure;Samples;Min_cycle;Max_cycle;Signal;HPM_P1;HPM_P2
2022/08/25 00:00:27;;;;;;;;;;;21.40;46.30;;;;;;463907;255;1548;-49
2022/08/25 00:02:28;;;;;;;;;;;21.40;46.30;;;;;;463742;256;1338;-49
2022/08/25 00:04:30;;;;;;;;;;;21.40;46.40;;;;;;463913;255;2214;-48
2022/08/25 00:06:31;;;;;;;;;;;21.40;46.40;;;;;;464062;255;1293;-49
2022/08/25 00:08:33;;;;;;;;;;;21.40;46.40;;;;;;464172;255;1142;-49
2022/08/25 00:10:34;;;;;;;;;;;21.40;46.40;;;;;;463974;255;2140;-49
2022/08/25 00:12:35;;;;;;;;;;;21.40;46.40;;;;;;463829;255;1494;-49
2022/08/25 00:14:37;;;;;;;;;;;21.40;46.40;;;;;;463788;256;1092;-49
2022/08/25 00:16:38;;;;;;;;;;;21.40;46.40;;;;;;463926;255;1165;-49
2022/08/25 00:18:39;;;;;;;;;;;21.40;46.40;;;;;;464022;255;1156;-49
2022/08/25 00:20:40;;;;;;;;;;;21.40;46.50;;;;;;463806;256;1422;-49
2022/08/25 00:22:42;;;;;;;;;;;21.40;46.50;;;;;;463818;255;1147;-49
2022/08/25 00:24:43;;;;;;;;;;;21.40;46.50;;;;;;463837;255;2179;-49
2022/08/25 00:26:45;;;;;;;;;;;21.40;46.50;;;;;;464014;255;1317;-49
2022/08/25 00:28:46;;;;;;;;;;;21.40;46.50;;;;;;463939;256;2291;-49
2022/08/25 00:30:48;;;;;;;;;;;21.40;46.50;;;;;;463984;255;1231;-49
2022/08/25 00:32:49;;;;;;;;;;;21.40;46.50;;;;;;463754;255;2103;-49
2022/08/25 00:34:50;;;;;;;;;;;21.40;46.50;;;;;;463821;255;1306;-50
2022/08/25 00:36:51;;;;;;;;;;;21.40;46.50;;;;;;463979;255;1442;-49
2022/08/25 00:38:52;;;;;;;;;;;21.40;46.50;;;;;;463725;256;1347;-49
2022/08/25 00:41:05;;;;;;;;;;;21.40;46.50;;;;;;463846;256;1328;-49
2022/08/25 00:43:06;;;;;;;;;;;21.40;46.50;;;;;;463861;256;1187;-49
2022/08/25 00:45:08;;;;;;;;;;;21.40;46.50;;;;;;463770;255;2187;-49
2022/08/25 00:47:09;;;;;;;;;;;21.40;46.50;;;;;;463787;256;1203;-50
2022/08/25 00:49:10;;;;;;;;;;;21.40;46.60;;;;;;463927;255;1396;-49
2022/08/25 00:51:11;;;;;;;;;;;21.40;46.50;;;;;;463876;255;1195;-49
2022/08/25 00:53:13;;;;;;;;;;;21.40;46.50;;;;;;464125;255;1264;-48
2022/08/25 00:55:14;;;;;;;;;;;21.40;46.50;;;;;;463915;256;1180;-49
2022/08/25 00:57:15;;;;;;;;;;;21.40;46.60;;;;;;463863;255;1191;-49
2022/08/25 00:59:17;;;;;;;;;;;21.40;46.60;;;;;;463967;255;1245;-49
2022/08/25 01:01:18;;;;;;;;;;;21.40;46.70;;;;;;463828;256;1160;-49
2022/08/25 01:03:19;;;;;;;;;;;21.40;46.60;;;;;;463894;255;1219;-49
2022/08/25 01:05:21;;;;;;;;;;;21.40;46.60;;;;;;464376;255;2182;-49
2022/08/25 01:07:22;;;;;;;;;;;21.40;46.70;;;;;;464064;255;1151;-49
2022/08/25 01:09:23;;;;;;;;;;;21.40;46.70;;;;;;463829;256;1372;-49
2022/08/25 01:11:25;;;;;;;;;;;21.40;46.70;;;;;;463886;255;1322;-49
2022/08/25 01:13:26;;;;;;;;;;;21.40;46.60;;;;;;463818;256;1360;-50
2022/08/25 01:15:27;;;;;;;;;;;21.40;46.70;;;;;;463714;255;1342;-49
2022/08/25 01:17:29;;;;;;;;;;;21.40;46.70;;;;;;463984;255;1428;-49
2022/08/25 01:19:32;;;;;;;;;;;21.40;46.60;;;;;;463957;255;1355;-49
2022/08/25 01:21:33;;;;;;;;;;;21.40;46.60;;;;;;463857;255;2003;-49
2022/08/25 01:23:33;;;;;;;;;;;21.40;46.70;;;;;;463812;256;2300;-49
2022/08/25 01:25:35;;;;;;;;;;;21.40;46.70;;;;;;464084;255;2209;-49
2022/08/25 01:27:36;;;;;;;;;;;21.40;46.70;;;;;;463920;256;1237;-49
2022/08/25 01:29:37;;;;;;;;;;;21.40;46.70;;;;;;464448;255;1287;-49
2022/08/25 01:31:39;;;;;;;;;;;21.40;46.80;;;;;;463979;255;1316;-49
2022/08/25 01:33:41;;;;;;;;;;;21.40;46.70;;;;;;464226;255;1271;-49
2022/08/25 01:35:42;;;;;;;;;;;21.40;46.70;;;;;;463998;255;2198;-49
2022/08/25 01:37:43;;;;;;;;;;;21.40;46.70;;;;;;463926;255;1174;-50
2022/08/25 01:39:44;;;;;;;;;;;21.40;46.70;;;;;;463879;256;1231;-50
2022/08/25 01:41:46;;;;;;;;;;;21.40;46.70;;;;;;463846;256;1384;-50
2022/08/25 01:43:47;;;;;;;;;;;21.40;46.80;;;;;;463836;256;1230;-49
2022/08/25 01:45:49;;;;;;;;;;;21.40;46.70;;;;;;463780;256;2213;-49
2022/08/25 01:47:50;;;;;;;;;;;21.40;46.70;;;;;;463856;256;1202;-49
2022/08/25 01:49:51;;;;;;;;;;;21.40;46.80;;;;;;463860;255;1265;-50
2022/08/25 01:51:52;;;;;;;;;;;21.40;46.80;;;;;;463780;256;1192;-49
2022/08/25 01:53:54;;;;;;;;;;;21.40;46.70;;;;;;463841;256;1305;-49
2022/08/25 01:56:00;;;;;;;;;;;21.40;46.80;;;;;;464249;255;1239;-49
2022/08/25 01:57:56;;;;;;;;;;;21.40;46.80;;;;;;463895;255;1250;-49
2022/08/25 01:59:58;;;;;;;;;;;21.40;46.80;;;;;;463997;255;1511;-48
2022/08/25 02:01:59;;;;;;;;;;;21.40;46.80;;;;;;463927;256;1371;-49
2022/08/25 02:04:00;;;;;;;;;;;21.40;46.80;;;;;;463977;255;1232;-49
2022/08/25 02:06:02;;;;;;;;;;;21.40;46.80;;;;;;463891;256;2213;-49
2022/08/25 02:08:03;;;;;;;;;;;21.40;46.80;;;;;;464225;255;1285;-49
2022/08/25 02:10:04;;;;;;;;;;;21.40;46.90;;;;;;463819;255;1252;-49
2022/08/25 02:12:07;;;;;;;;;;;21.40;46.90;;;;;;463964;256;1170;-49
2022/08/25 02:14:07;;;;;;;;;;;21.40;46.90;;;;;;463840;255;2431;-49
2022/08/25 02:16:08;;;;;;;;;;;21.40;46.90;;;;;;463991;255;1410;-49
2022/08/25 02:18:10;;;;;;;;;;;21.40;46.90;;;;;;464003;255;1349;-49
2022/08/25 02:20:11;;;;;;;;;;;21.40;46.90;;;;;;463837;255;1183;-49
2022/08/25 02:22:12;;;;;;;;;;;21.40;46.90;;;;;;463843;255;1267;-49
2022/08/25 02:24:14;;;;;;;;;;;21.40;46.90;;;;;;463973;255;1253;-49
2022/08/25 02:26:17;;;;;;;;;;;21.40;46.90;;;;;;463988;255;2219;-49
2022/08/25 02:28:17;;;;;;;;;;;21.40;47.00;;;;;;463873;256;2148;-49
2022/08/25 02:30:18;;;;;;;;;;;21.40;47.00;;;;;;463853;255;1324;-49
2022/08/25 02:32:19;;;;;;;;;;;21.40;47.00;;;;;;464028;255;1211;-49
2022/08/25 02:34:22;;;;;;;;;;;21.40;47.00;;;;;;463836;256;1194;-49
2022/08/25 02:36:22;;;;;;;;;;;21.40;46.90;;;;;;463778;256;1999;-49
2022/08/25 02:38:26;;;;;;;;;;;21.40;47.00;;;;;;464147;255;1108;-50
2022/08/25 02:40:26;;;;;;;;;;;21.40;46.90;;;;;;464094;255;2396;-50
2022/08/25 02:42:26;;;;;;;;;;;21.40;47.00;;;;;;464024;255;2187;-50
2022/08/25 02:44:28;;;;;;;;;;;21.40;47.00;;;;;;463837;255;1224;-49
2022/08/25 02:46:29;;;;;;;;;;;21.40;47.00;;;;;;463872;255;2226;-50
2022/08/25 02:48:31;;;;;;;;;;;21.40;47.00;;;;;;464018;256;1163;-49
2022/08/25 02:50:32;;;;;;;;;;;21.40;47.00;;;;;;463913;255;1215;-49
2022/08/25 02:52:34;;;;;;;;;;;21.40;47.00;;;;;;463960;255;1103;-49
2022/08/25 02:54:35;;;;;;;;;;;21.30;47.00;;;;;;463862;256;1177;-49
2022/08/25 02:56:36;;;;;;;;;;;21.40;47.00;;;;;;463945;255;1246;-49
2022/08/25 02:58:37;;;;;;;;;;;21.40;47.10;;;;;;463967;255;1226;-49
2022/08/25 03:00:39;;;;;;;;;;;21.40;47.10;;;;;;464153;255;1203;-49
2022/08/25 03:02:40;;;;;;;;;;;21.40;47.10;;;;;;463829;255;1302;-49
2022/08/25 03:04:42;;;;;;;;;;;21.40;47.10;;;;;;464119;255;1306;-50
2022/08/25 03:06:43;;;;;;;;;;;21.40;47.00;;;;;;464173;255;2179;-50
2022/08/25 03:08:44;;;;;;;;;;;21.40;47.00;;;;;;463878;255;1240;-49
2022/08/25 03:10:46;;;;;;;;;;;21.40;47.10;;;;;;464098;255;1317;-49
2022/08/25 03:12:47;;;;;;;;;;;21.40;47.10;;;;;;464270;255;1225;-49
2022/08/25 03:14:48;;;;;;;;;;;21.40;47.10;;;;;;463809;255;1295;-49
2022/08/25 03:16:50;;;;;;;;;;;21.30;47.10;;;;;;463841;255;1340;-49
2022/08/25 03:18:51;;;;;;;;;;;21.30;47.10;;;;;;464064;255;1231;-49
2022/08/25 03:20:52;;;;;;;;;;;21.40;47.10;;;;;;463708;256;1395;-49
2022/08/25 03:22:54;;;;;;;;;;;21.40;47.20;;;;;;464118;255;1282;-49
2022/08/25 03:26:52;;;;;;;;;;;21.40;47.10;;;;;;463890;255;1548;-49
2022/08/25 03:26:57;;;;;;;;;;;21.40;47.10;;;;;;463794;255;2202;-49
2022/08/25 03:28:58;;;;;;;;;;;21.40;47.10;;;;;;463797;255;1518;-49
2022/08/25 03:30:59;;;;;;;;;;;21.40;47.20;;;;;;463894;255;1415;-49
2022/08/25 03:33:01;;;;;;;;;;;21.30;47.10;;;;;;464049;255;1217;-49
2022/08/25 03:35:02;;;;;;;;;;;21.30;47.10;;;;;;463953;255;1547;-49
2022/08/25 03:37:04;;;;;;;;;;;21.40;47.20;;;;;;463749;256;1374;-49
2022/08/25 03:39:07;;;;;;;;;;;21.30;47.10;;;;;;463738;256;1647;-49
2022/08/25 03:41:06;;;;;;;;;;;21.40;47.20;;;;;;464248;255;2269;-49
2022/08/25 03:43:07;;;;;;;;;;;21.30;47.20;;;;;;463798;255;1366;-50
2022/08/25 03:45:10;;;;;;;;;;;21.30;47.20;;;;;;463948;255;1574;-49
2022/08/25 03:47:11;;;;;;;;;;;21.30;47.20;;;;;;463919;255;2166;-49
2022/08/25 03:49:12;;;;;;;;;;;21.30;47.20;;;;;;463855;256;1251;-49
2022/08/25 03:51:14;;;;;;;;;;;21.30;47.10;;;;;;463882;256;1305;-50
2022/08/25 03:53:15;;;;;;;;;;;21.30;47.20;;;;;;463816;255;1340;-49
2022/08/25 03:55:16;;;;;;;;;;;21.40;47.20;;;;;;463849;256;1191;-49
2022/08/25 03:57:19;;;;;;;;;;;21.30;47.10;;;;;;463912;256;1730;-49
2022/08/25 03:59:19;;;;;;;;;;;21.40;47.30;;;;;;463917;255;2461;-49
2022/08/25 04:01:21;;;;;;;;;;;21.30;47.20;;;;;;463874;256;1274;-49
2022/08/25 04:03:22;;;;;;;;;;;21.40;47.20;;;;;;463807;255;1219;-49
2022/08/25 04:05:23;;;;;;;;;;;21.40;47.30;;;;;;463821;255;1206;-49
2022/08/25 04:07:25;;;;;;;;;;;21.40;47.20;;;;;;463824;255;2202;-49
2022/08/25 04:09:26;;;;;;;;;;;21.40;47.30;;;;;;464027;255;1305;-49
2022/08/25 04:11:27;;;;;;;;;;;21.40;47.30;;;;;;463810;256;1343;-49
2022/08/25 04:13:29;;;;;;;;;;;21.30;47.20;;;;;;463832;255;1141;-49
2022/08/25 04:15:30;;;;;;;;;;;21.40;47.30;;;;;;463758;255;1167;-49
2022/08/25 04:17:32;;;;;;;;;;;21.40;47.30;;;;;;463782;256;1216;-49
2022/08/25 04:19:33;;;;;;;;;;;21.30;47.30;;;;;;463907;255;1593;-49
2022/08/25 04:21:34;;;;;;;;;;;21.30;47.20;;;;;;463813;256;1243;-49
2022/08/25 04:23:36;;;;;;;;;;;21.30;47.30;;;;;;463755;256;1341;-49
2022/08/25 04:25:37;;;;;;;;;;;21.30;47.30;;;;;;463784;255;1211;-49
2022/08/25 04:27:38;;;;;;;;;;;21.30;47.30;;;;;;463698;256;2170;-50
2022/08/25 04:29:40;;;;;;;;;;;21.30;47.30;;;;;;463793;255;1548;-49
2022/08/25 04:31:41;;;;;;;;;;;21.30;47.40;;;;;;463756;255;1690;-49
2022/08/25 04:33:42;;;;;;;;;;;21.30;47.30;;;;;;463848;255;1234;-49
2022/08/25 04:35:44;;;;;;;;;;;21.40;47.30;;;;;;463707;256;1627;-49
2022/08/25 04:37:47;;;;;;;;;;;21.30;47.30;;;;;;463738;256;1380;-49
2022/08/25 04:39:46;;;;;;;;;;;21.30;47.30;;;;;;463963;255;2213;-49
2022/08/25 04:41:48;;;;;;;;;;;21.30;47.30;;;;;;463775;256;1202;-50
2022/08/25 04:43:49;;;;;;;;;;;21.30;47.30;;;;;;463881;255;1279;-49
2022/08/25 04:45:51;;;;;;;;;;;21.30;47.30;;;;;;463834;255;1575;-49
2022/08/25 04:47:53;;;;;;;;;;;21.30;47.30;;;;;;463927;256;2209;-49
2022/08/25 04:49:54;;;;;;;;;;;21.40;47.40;;;;;;463772;256;1221;-49
2022/08/25 04:51:56;;;;;;;;;;;21.30;47.30;;;;;;463880;256;1259;-49
2022/08/25 04:53:56;;;;;;;;;;;21.30;47.30;;;;;;463936;255;2079;-49
2022/08/25 04:55:58;;;;;;;;;;;21.30;47.30;;;;;;463874;255;1643;-49
2022/08/25 04:57:59;;;;;;;;;;;21.30;47.40;;;;;;463868;255;1202;-49
2022/08/25 05:00:01;;;;;;;;;;;21.30;47.40;;;;;;463819;255;1202;-49
2022/08/25 05:02:03;;;;;;;;;;;21.30;47.40;;;;;;463726;256;1238;-49
2022/08/25 05:04:04;;;;;;;;;;;21.30;47.40;;;;;;463759;255;2382;-50
2022/08/25 05:06:05;;;;;;;;;;;21.30;47.40;;;;;;464051;255;1187;-49
2022/08/25 05:08:06;;;;;;;;;;;21.30;47.40;;;;;;463853;256;2178;-49
2022/08/25 05:10:08;;;;;;;;;;;21.40;47.40;;;;;;463800;255;1231;-49
2022/08/25 05:12:09;;;;;;;;;;;21.30;47.40;;;;;;463793;255;1251;-50
2022/08/25 05:14:13;;;;;;;;;;;21.30;47.40;;;;;;463767;255;1374;-48
2022/08/25 05:16:12;;;;;;;;;;;21.40;47.40;;;;;;463831;255;2230;-49
2022/08/25 05:18:13;;;;;;;;;;;21.30;47.40;;;;;;464138;255;1256;-49
2022/08/25 05:20:14;;;;;;;;;;;21.30;47.40;;;;;;463826;255;1335;-50
2022/08/25 05:22:16;;;;;;;;;;;21.40;47.50;;;;;;463688;256;1271;-49
2022/08/25 05:24:17;;;;;;;;;;;21.30;47.40;;;;;;463867;255;1178;-49
2022/08/25 05:26:18;;;;;;;;;;;21.30;47.50;;;;;;463771;255;1251;-49
2022/08/25 05:28:20;;;;;;;;;;;21.30;47.50;;;;;;463735;256;2186;-49
2022/08/25 05:30:21;;;;;;;;;;;21.30;47.40;;;;;;464001;255;1419;-49
2022/08/25 05:32:23;;;;;;;;;;;21.30;47.20;;;;;;463863;255;1193;-49
2022/08/25 05:34:24;;;;;;;;;;;21.40;47.10;;;;;;463995;255;1371;-49
2022/08/25 05:36:26;;;;;;;;;;;21.40;47.00;;;;;;463881;256;1268;-50
2022/08/25 05:38:27;;;;;;;;;;;21.30;46.90;;;;;;463984;256;1231;-49
2022/08/25 05:40:28;;;;;;;;;;;21.40;46.90;;;;;;463715;256;1227;-49
2022/08/25 05:42:30;;;;;;;;;;;21.40;46.80;;;;;;463841;255;1313;-49
2022/08/25 05:44:31;;;;;;;;;;;21.40;46.80;;;;;;463841;255;1233;-49
2022/08/25 05:46:32;;;;;;;;;;;21.40;46.60;;;;;;463880;255;2182;-49
2022/08/25 05:48:34;;;;;;;;;;;21.40;46.60;;;;;;463967;255;1198;-49
2022/08/25 05:50:35;;;;;;;;;;;21.40;46.50;;;;;;463983;256;1262;-49
2022/08/25 05:52:37;;;;;;;;;;;21.40;46.50;;;;;;463978;255;1169;-49
2022/08/25 05:54:38;;;;;;;;;;;21.40;46.40;;;;;;464101;255;1292;-49
2022/08/25 05:56:40;;;;;;;;;;;21.40;46.30;;;;;;463823;255;1218;-49
2022/08/25 05:58:41;;;;;;;;;;;21.40;46.30;;;;;;463777;256;1436;-49
2022/08/25 06:00:42;;;;;;;;;;;21.40;46.30;;;;;;463727;256;1213;-49
2022/08/25 06:02:45;;;;;;;;;;;21.40;46.30;;;;;;464252;255;1338;-49
2022/08/25 06:04:45;;;;;;;;;;;21.40;46.30;;;;;;463955;256;2049;-49
2022/08/25 06:06:47;;;;;;;;;;;21.40;46.10;;;;;;463890;256;2211;-50
2022/08/25 06:08:47;;;;;;;;;;;21.40;46.10;;;;;;463665;256;2468;-49
2022/08/25 06:10:49;;;;;;;;;;;21.40;46.10;;;;;;463706;256;1168;-49
2022/08/25 06:12:50;;;;;;;;;;;21.40;46.00;;;;;;463745;256;1176;-49
2022/08/25 06:14:51;;;;;;;;;;;21.40;46.00;;;;;;463813;255;1236;-49
2022/08/25 06:16:53;;;;;;;;;;;21.40;46.00;;;;;;463794;255;1729;-49
2022/08/25 06:18:54;;;;;;;;;;;21.40;46.00;;;;;;463808;255;1164;-49
2022/08/25 06:20:56;;;;;;;;;;;21.40;46.00;;;;;;463904;255;1186;-49
2022/08/25 06:22:57;;;;;;;;;;;21.40;46.00;;;;;;463741;256;1130;-49
2022/08/25 06:24:58;;;;;;;;;;;21.40;46.00;;;;;;463776;256;1321;-49
2022/08/25 06:27:00;;;;;;;;;;;21.40;46.00;;;;;;464011;255;2202;-49
2022/08/25 06:29:01;;;;;;;;;;;21.40;46.00;;;;;;463852;256;1315;-49
2022/08/25 06:31:02;;;;;;;;;;;21.40;46.00;;;;;;463787;256;1179;-49
2022/08/25 06:33:04;;;;;;;;;;;21.40;46.10;;;;;;463590;255;1215;-50
2022/08/25 06:35:05;;;;;;;;;;;21.40;45.90;;;;;;464200;255;1243;-49
2022/08/25 06:37:06;;;;;;;;;;;21.40;46.00;;;;;;464014;255;1267;-49
2022/08/25 06:39:08;;;;;;;;;;;21.40;46.00;;;;;;464218;255;1240;-49
2022/08/25 06:41:11;;;;;;;;;;;21.40;46.00;;;;;;464095;255;1413;-49
2022/08/25 06:43:11;;;;;;;;;;;21.40;46.00;;;;;;463709;256;2250;-49
2022/08/25 06:45:12;;;;;;;;;;;21.40;46.00;;;;;;463700;256;1277;-49
2022/08/25 06:47:14;;;;;;;;;;;21.40;46.00;;;;;;463645;256;2207;-49
2022/08/25 06:49:15;;;;;;;;;;;21.40;46.00;;;;;;463790;255;1337;-49
2022/08/25 06:51:16;;;;;;;;;;;21.40;46.00;;;;;;463641;256;1314;-49
2022/08/25 06:53:18;;;;;;;;;;;21.40;46.00;;;;;;463702;256;1207;-49
2022/08/25 06:55:19;;;;;;;;;;;21.40;46.00;;;;;;463730;256;1193;-49
2022/08/25 06:57:21;;;;;;;;;;;21.40;45.90;;;;;;463872;255;1178;-49
2022/08/25 06:59:22;;;;;;;;;;;21.40;46.00;;;;;;463954;255;1602;-49
2022/08/25 07:01:25;;;;;;;;;;;21.40;46.00;;;;;;463783;255;1789;-49
2022/08/25 07:03:24;;;;;;;;;;;21.50;46.10;;;;;;463565;256;1926;-49
2022/08/25 07:05:26;;;;;;;;;;;21.50;46.00;;;;;;463650;256;1164;-49
2022/08/25 07:07:27;;;;;;;;;;;21.40;46.00;;;;;;463874;255;2190;-49
2022/08/25 07:09:28;;;;;;;;;;;21.40;46.10;;;;;;463764;256;1249;-50
2022/08/25 07:11:33;;;;;;;;;;;21.40;46.00;;;;;;463773;255;1199;-49
2022/08/25 07:13:31;;;;;;;;;;;21.40;46.00;;;;;;463657;256;1308;-49
2022/08/25 07:15:32;;;;;;;;;;;21.50;46.10;;;;;;463746;255;1219;-49
2022/08/25 07:17:34;;;;;;;;;;;21.40;46.10;;;;;;463897;255;1199;-49
2022/08/25 07:19:35;;;;;;;;;;;21.40;46.10;;;;;;463834;255;1217;-49
2022/08/25 07:21:37;;;;;;;;;;;21.40;46.10;;;;;;463738;256;1275;-49
2022/08/25 07:23:38;;;;;;;;;;;21.40;46.20;;;;;;463704;255;1218;-49
2022/08/25 07:25:39;;;;;;;;;;;21.40;46.30;;;;;;463814;255;1293;-49
2022/08/25 07:27:41;;;;;;;;;;;21.40;46.30;;;;;;463714;255;2191;-50
2022/08/25 07:29:42;;;;;;;;;;;21.40;46.30;;;;;;463798;256;1254;-49
2022/08/25 07:31:43;;;;;;;;;;;21.40;46.30;;;;;;463704;255;1465;-49
2022/08/25 07:36:05;;;;;;;;;;;21.40;46.20;;;;;;463758;255;1314;-49
2022/08/25 07:38:07;;;;;;;;;;;21.40;46.30;;;;;;463739;255;1577;-49
2022/08/25 07:40:08;;;;;;;;;;;21.40;46.30;;;;;;463581;255;1252;-50
2022/08/25 07:42:09;;;;;;;;;;;21.50;46.30;;;;;;463592;255;1331;-49
2022/08/25 07:44:11;;;;;;;;;;;21.40;46.30;;;;;;463558;256;1182;-49
2022/08/25 07:46:12;;;;;;;;;;;21.40;46.30;;;;;;463599;255;1326;-49
2022/08/25 07:48:13;;;;;;;;;;;21.40;46.30;;;;;;463593;255;2255;-49
2022/08/25 07:50:15;;;;;;;;;;;21.40;46.30;;;;;;463497;255;1295;-50
2022/08/25 07:52:16;;;;;;;;;;;21.40;46.30;;;;;;463485;255;1265;-49
2022/08/25 07:54:18;;;;;;;;;;;21.50;46.30;;;;;;463569;255;1292;-49
2022/08/25 07:56:19;;;;;;;;;;;21.40;46.20;;;;;;463464;255;1331;-49
2022/08/25 07:58:20;;;;;;;;;;;21.50;46.30;;;;;;463753;255;1536;-49
2022/08/25 08:00:22;;;;;;;;;;;21.50;46.30;;;;;;463695;256;1543;-49
2022/08/25 08:02:23;;;;;;;;;;;21.50;46.30;;;;;;463506;256;1366;-49
2022/08/25 08:04:25;;;;;;;;;;;21.40;46.30;;;;;;463573;255;1264;-49
2022/08/25 08:06:26;;;;;;;;;;;21.50;46.30;;;;;;463675;255;1259;-49
2022/08/25 08:08:27;;;;;;;;;;;21.40;46.30;;;;;;463479;256;2175;-49
2022/08/25 08:10:28;;;;;;;;;;;21.40;46.30;;;;;;463628;255;1301;-49
2022/08/25 08:12:30;;;;;;;;;;;21.40;46.30;;;;;;463751;255;1230;-49
2022/08/25 08:14:31;;;;;;;;;;;21.50;46.30;;;;;;463632;255;1305;-49
2022/08/25 08:16:33;;;;;;;;;;;21.40;46.30;;;;;;463815;255;1245;-49
2022/08/25 08:18:34;;;;;;;;;;;21.50;46.30;;;;;;463559;255;1236;-49
2022/08/25 08:20:36;;;;;;;;;;;21.50;46.30;;;;;;463649;255;1237;-49
2022/08/25 08:22:37;;;;;;;;;;;21.50;46.30;;;;;;463494;255;1235;-49
2022/08/25 08:24:39;;;;;;;;;;;21.40;46.20;;;;;;463512;256;1359;-49
2022/08/25 08:26:40;;;;;;;;;;;21.50;46.30;;;;;;463512;255;1654;-50
2022/08/25 08:28:41;;;;;;;;;;;21.50;46.30;;;;;;463475;256;2198;-49
2022/08/25 08:30:42;;;;;;;;;;;21.50;46.30;;;;;;463559;256;1589;-49
2022/08/25 08:32:44;;;;;;;;;;;21.40;46.30;;;;;;463498;256;1322;-49
2022/08/25 08:34:46;;;;;;;;;;;21.50;46.30;;;;;;463518;256;1400;-50
2022/08/25 08:36:47;;;;;;;;;;;21.50;46.30;;;;;;463412;256;1349;-49
2022/08/25 08:38:48;;;;;;;;;;;21.50;46.30;;;;;;463375;255;1293;-49
2022/08/25 08:42:15;;;;;;;;;;;21.50;46.20;;;;;;463372;256;1357;-49
2022/08/25 08:42:52;;;;;;;;;;;21.50;46.30;;;;;;463298;256;1279;-49
2022/08/25 08:44:52;;;;;;;;;;;21.50;46.30;;;;;;463635;255;1261;-49
2022/08/25 08:46:54;;;;;;;;;;;21.50;46.30;;;;;;463519;255;1346;-49
2022/08/25 08:48:56;;;;;;;;;;;21.50;46.30;;;;;;463481;256;2210;-50
2022/08/25 08:50:57;;;;;;;;;;;21.50;46.30;;;;;;463663;255;1256;-49
2022/08/25 08:52:58;;;;;;;;;;;21.40;46.30;;;;;;463551;255;1266;-49
2022/08/25 08:55:00;;;;;;;;;;;21.50;46.30;;;;;;463636;255;1236;-49
2022/08/25 08:57:01;;;;;;;;;;;21.50;46.30;;;;;;463475;256;2441;-50
2022/08/25 08:59:03;;;;;;;;;;;21.50;46.30;;;;;;463585;255;1415;-49
2022/08/25 09:01:04;;;;;;;;;;;21.50;46.30;;;;;;463534;255;1959;-49
2022/08/25 09:03:05;;;;;;;;;;;21.50;46.30;;;;;;463698;255;1542;-49
2022/08/25 09:05:06;;;;;;;;;;;21.50;46.30;;;;;;463403;256;1299;-49
2022/08/25 09:07:08;;;;;;;;;;;21.50;46.30;;;;;;463589;255;1615;-49
2022/08/25 09:09:09;;;;;;;;;;;21.50;46.30;;;;;;463599;255;2206;-49
2022/08/25 09:11:10;;;;;;;;;;;21.50;46.40;;;;;;463602;255;1271;-49
2022/08/25 09:13:12;;;;;;;;;;;21.50;46.40;;;;;;463655;255;1247;-49
2022/08/25 09:15:13;;;;;;;;;;;21.50;46.50;;;;;;463738;256;1398;-49
2022/08/25 09:17:16;;;;;;;;;;;21.50;46.60;;;;;;463428;255;1404;-50
2022/08/25 09:19:16;;;;;;;;;;;21.50;46.60;;;;;;463441;255;2779;-49
2022/08/25 09:21:17;;;;;;;;;;;21.50;46.60;;;;;;463658;255;1339;-49
2022/08/25 09:23:18;;;;;;;;;;;21.50;46.70;;;;;;463634;256;1527;-49
2022/08/25 09:25:20;;;;;;;;;;;21.50;46.50;;;;;;463616;255;1368;-49
2022/08/25 09:27:21;;;;;;;;;;;21.50;46.50;;;;;;463595;255;1251;-49
2022/08/25 09:29:22;;;;;;;;;;;21.50;46.60;;;;;;463577;256;2178;-49
2022/08/25 09:31:24;;;;;;;;;;;21.40;46.60;;;;;;463678;255;1316;-50
2022/08/25 09:33:25;;;;;;;;;;;21.50;46.60;;;;;;463617;256;1240;-50
2022/08/25 09:35:27;;;;;;;;;;;21.50;46.60;;;;;;463688;255;1220;-49
2022/08/25 09:37:28;;;;;;;;;;;21.50;46.50;;;;;;463558;255;1309;-50
2022/08/25 09:39:29;;;;;;;;;;;21.50;46.50;;;;;;463685;255;1324;-49
2022/08/25 09:41:31;;;;;;;;;;;21.50;46.50;;;;;;463488;255;1353;-49
2022/08/25 09:43:32;;;;;;;;;;;21.50;46.50;;;;;;463745;255;1266;-49
2022/08/25 09:45:33;;;;;;;;;;;21.50;46.50;;;;;;463629;255;1269;-49
2022/08/25 09:47:35;;;;;;;;;;;21.50;46.50;;;;;;463668;255;1193;-49
2022/08/25 09:49:37;;;;;;;;;;;21.50;46.50;;;;;;463766;256;2206;-49
2022/08/25 09:51:39;;;;;;;;;;;21.50;46.60;;;;;;463639;256;1228;-49
2022/08/25 09:53:41;;;;;;;;;;;21.50;46.60;;;;;;463552;255;1435;-50
2022/08/25 09:55:42;;;;;;;;;;;21.50;46.60;;;;;;463570;256;1324;-49
2022/08/25 09:57:43;;;;;;;;;;;21.50;46.50;;;;;;463581;255;1284;-49
2022/08/25 09:59:45;;;;;;;;;;;21.50;46.50;;;;;;463664;255;1280;-50
2022/08/25 10:01:46;;;;;;;;;;;21.50;46.50;;;;;;463571;255;1834;-49
2022/08/25 10:03:47;;;;;;;;;;;21.50;46.50;;;;;;463674;256;1254;-49
2022/08/25 10:05:48;;;;;;;;;;;21.50;46.50;;;;;;463654;256;1434;-49
2022/08/25 10:07:50;;;;;;;;;;;21.50;46.60;;;;;;463697;255;1307;-49
2022/08/25 10:09:51;;;;;;;;;;;21.50;46.50;;;;;;463757;255;2210;-50
2022/08/25 10:11:52;;;;;;;;;;;21.50;46.50;;;;;;463738;255;1289;-49
2022/08/25 10:13:54;;;;;;;;;;;21.50;46.60;;;;;;463724;256;1185;-50
2022/08/25 10:15:55;;;;;;;;;;;21.50;46.50;;;;;;463670;255;1175;-50
2022/08/25 10:17:58;;;;;;;;;;;21.50;46.60;;;;;;463719;255;1166;-49
2022/08/25 10:19:58;;;;;;;;;;;21.50;46.50;;;;;;463667;256;2003;-50
2022/08/25 10:21:59;;;;;;;;;;;21.50;46.60;;;;;;463726;255;1223;-49
2022/08/25 10:24:01;;;;;;;;;;;21.50;46.60;;;;;;463738;255;1153;-49
2022/08/25 10:26:02;;;;;;;;;;;21.50;46.60;;;;;;463775;256;2456;-49
2022/08/25 10:28:04;;;;;;;;;;;21.50;46.50;;;;;;463668;256;1230;-49
2022/08/25 10:30:05;;;;;;;;;;;21.50;46.50;;;;;;463754;255;2194;-49
2022/08/25 10:32:06;;;;;;;;;;;21.50;46.60;;;;;;463657;256;1358;-49
2022/08/25 10:34:08;;;;;;;;;;;21.50;46.60;;;;;;463816;255;1364;-49
2022/08/25 10:36:09;;;;;;;;;;;21.50;46.50;;;;;;463798;256;1246;-49
2022/08/25 10:38:12;;;;;;;;;;;21.50;46.50;;;;;;463671;256;1736;-49
2022/08/25 10:40:12;;;;;;;;;;;21.50;46.50;;;;;;463903;255;2042;-49
2022/08/25 10:42:13;;;;;;;;;;;21.50;46.60;;;;;;463600;256;1664;-49
2022/08/25 10:46:35;;;;;;;;;;;21.50;46.60;;;;;;463828;255;1213;-49
2022/08/25 10:48:36;;;;;;;;;;;21.50;46.60;;;;;;463704;255;2222;-49
2022/08/25 10:50:37;;;;;;;;;;;21.50;46.50;;;;;;463761;255;1321;-49
2022/08/25 10:52:39;;;;;;;;;;;21.50;46.60;;;;;;463803;256;1332;-49
2022/08/25 10:54:40;;;;;;;;;;;21.50;46.60;;;;;;464000;255;1203;-49
2022/08/25 10:56:41;;;;;;;;;;;21.50;46.70;;;;;;463726;256;1254;-49
2022/08/25 10:58:43;;;;;;;;;;;21.50;46.70;;;;;;463967;255;1240;-49
2022/08/25 11:00:44;;;;;;;;;;;21.50;46.70;;;;;;463666;256;1204;-49
2022/08/25 11:02:46;;;;;;;;;;;21.50;46.70;;;;;;463998;255;1209;-50
2022/08/25 11:04:47;;;;;;;;;;;21.50;46.70;;;;;;463509;255;1245;-49
2022/08/25 11:06:48;;;;;;;;;;;21.60;46.80;;;;;;463636;255;1257;-49
2022/08/25 11:08:50;;;;;;;;;;;21.50;46.90;;;;;;463528;256;2194;-49
2022/08/25 11:10:51;;;;;;;;;;;21.50;46.90;;;;;;463633;256;1168;-49
2022/08/25 11:12:52;;;;;;;;;;;21.60;47.10;;;;;;463838;255;1201;-49
2022/08/25 11:14:55;;;;;;;;;;;21.60;47.00;;;;;;463787;255;1236;-49
2022/08/25 11:16:55;;;;;;;;;;;21.50;46.90;;;;;;463929;256;1451;-49
2022/08/25 11:18:56;;;;;;;;;;;21.50;47.00;;;;;;463737;255;1363;-49
2022/08/25 11:20:58;;;;;;;;;;;21.50;47.00;;;;;;463618;255;1236;-49
2022/08/25 11:22:59;;;;;;;;;;;21.50;46.90;;;;;;463754;256;1306;-49
2022/08/25 11:25:02;;;;;;;;;;;21.50;46.90;;;;;;463693;255;1254;-49
2022/08/25 11:27:02;;;;;;;;;;;21.60;46.90;;;;;;463685;256;2214;-49
2022/08/25 11:29:03;;;;;;;;;;;21.60;46.90;;;;;;463784;255;2163;-49
2022/08/25 11:31:04;;;;;;;;;;;21.50;46.90;;;;;;463778;255;1290;-49
2022/08/25 11:33:06;;;;;;;;;;;21.60;46.90;;;;;;463580;256;1218;-48
2022/08/25 11:35:07;;;;;;;;;;;21.60;47.00;;;;;;463821;255;1219;-49
2022/08/25 11:37:08;;;;;;;;;;;21.50;46.90;;;;;;463788;255;1293;-49
2022/08/25 11:39:10;;;;;;;;;;;21.50;46.90;;;;;;463809;255;1551;-49
2022/08/25 11:41:11;;;;;;;;;;;21.50;47.00;;;;;;463688;255;1529;-49
2022/08/25 11:43:13;;;;;;;;;;;21.50;46.90;;;;;;463612;256;1237;-49
2022/08/25 11:45:14;;;;;;;;;;;21.50;47.00;;;;;;464101;255;1224;-50
2022/08/25 11:47:15;;;;;;;;;;;21.50;46.90;;;;;;463798;255;1301;-50
2022/08/25 11:49:18;;;;;;;;;;;21.50;46.90;;;;;;463739;255;2226;-49
2022/08/25 11:51:18;;;;;;;;;;;21.60;46.90;;;;;;463876;256;2225;-49
2022/08/25 11:53:20;;;;;;;;;;;21.50;46.80;;;;;;463797;255;1263;-49
2022/08/25 11:55:21;;;;;;;;;;;21.50;46.80;;;;;;463650;255;1371;-49
2022/08/25 11:57:24;;;;;;;;;;;21.50;46.80;;;;;;463632;256;1249;-49
2022/08/25 11:59:24;;;;;;;;;;;21.50;46.90;;;;;;463688;255;1566;-49
2022/08/25 12:01:25;;;;;;;;;;;21.50;46.80;;;;;;463714;256;1382;-49